Marion, IL

1:45 PM CDT on September 17, 2014 (GMT -0500)
Williamson County Regional | Change Station
CLOSE
Current Station
Airport
Location: Marion Regional,
Elevation: 472 ft
Nearby Weather Stations

Elev 472 ft 37.75 °N, 89.01 °W | Updated 54 minutes ago

Mostly Cloudy
Mostly Cloudy
66 °F
Feels Like 66 °F
N
7
Wind Variable Wind from ESE

Today
High -- | Low -- °F
--% Chance of Precip.
Yesterday
High -- | Low -- °F
Precip. -- in
6:39 AM 7:00 PM
Waning Crescent, 34% visible
Pressure 30.02 in
Visibility 10.0 miles
Clouds Mostly Cloudy 9000 ft
Dew Point 54 °F
Humidity 64%
Rainfall 0.00 in
Snow Depth Not available.
UV 5 out of 12
Pollen 7.30 out of 12
Air Quality Not available.
Flu Activity Not available.
METAR KMWA 171751Z 12006KT 10SM BKN090 19/12 A3002

More Conditions Fewer Conditions

Pressure 30.02 in
Visibility 10.0 miles
Clouds Mostly Cloudy 9000 ft
Dew Point 54 °F
Humidity 64%
Rainfall 0.00 in
Snow Depth Not available.
UV 5 out of 12
Pollen 7.30 out of 12
Air Quality Not available.
Flu Activity Not available.
METAR KMWA 171751Z 12006KT 10SM BKN090 19/12 A3002

More Conditions Fewer Conditions

10-Day Weather Forecast

Almanac

Astronomy

Sep. 17, 2014 Rise Set
Actual Time 6:39 AM CDT 7:00 PM CDT
Civil Twilight 6:12 AM CDT 7:26 PM CDT
Nautical Twilight 5:41 AM CDT 7:57 PM CDT
Astronomical Twilight 5:10 AM CDT 8:28 PM CDT
Moon 12:43 AM CDT 3:05 PM CDT
Length of Visible Light 13h 13m
Length of Day
12h 21m
Tomorrow will be 2m 24s shorter.
Waning Crescent, 34% of the Moon is Illuminated
Today
Waning Crescent
Sep 24
New
Oct 1
First Quarter
Oct 8
Full
Oct 15
Last Quarter

Today's Extremes

State Highs State Lows

Community

WunderPhotos

Upload Photos

1,754,127 photos uploaded!

WunderBlogs® & News

Nearby

Snow Depth

Station Depth Elevation
No new snow has been reported.

Earthquake Activity

City Distance Mag. Time & Date
No recent earthquake activity has been reported nearby.
Minimum magnitude displayed is 2.5.

Coastal Water Temperatures

Place Temperature
No Stations Reporting

Nearby Weather Stations